aviador You're here:

LKKV Decoded Metar

KARLOVY VARY in CZECH REPUBLIC
Report Time2018-06-23 12:00:00
UTC Time2018-06-23 12:10:48
Flight Rules vfr VFR
Wind260° at 13 kt
W.Decomp.*RWY 29: 10.9 kt HW 7.1 kt LCW
W.Rank260° ranks 2
Current wind is above 260° avg. (7.4)
Visibility9999 m
Phenomena:N/A
Clouds:Scattered 018 Hf
Expected CloudBase > 2,400 ft AGL from Temp-Dew spread
CeilingNone
Temp12°C (ISA +1)
Dew Point06°C (67% RH)
AAT6.4°C
QNH1022 hPa
Density Alt1,923 ft
Elevation1,982 ft
Report Wrong Elevation
Raw Report
METAR LKKV 231200Z 26013KT 9999 SCT018 12/06 Q1022=

Extra information for LKKV:More info

Metar Taf Metar & Taf Last 4 Metars F.Rules Stats Wind Profile Meteogram Temp Stats Airport Information Weather charts Add Link Nearby VenuesMetar ALERT Operation Metar Decoded Social comments